sensor_id;sensor_type;location;lat;lon;timestamp;temperature;humidity
17529;DHT22;8882;53.192;8.184;2024-03-06T05:18:13;3.90;99.90
17529;DHT22;8882;53.192;8.184;2024-03-06T05:20:39;3.90;99.90
17529;DHT22;8882;53.192;8.184;2024-03-06T05:23:04;4.00;99.90
17529;DHT22;8882;53.192;8.184;2024-03-06T05:25:30;3.90;99.90
17529;DHT22;8882;53.192;8.184;2024-03-06T05:27:55;3.90;99.90
17529;DHT22;8882;53.192;8.184;2024-03-06T05:30:21;3.90;99.90
17529;DHT22;8882;53.192;8.184;2024-03-06T05:32:46;3.90;99.90
17529;DHT22;8882;53.192;8.184;2024-03-06T05:35:12;3.90;99.90
17529;DHT22;8882;53.192;8.184;2024-03-06T05:37:38;3.90;99.90
17529;DHT22;8882;53.192;8.184;2024-03-06T05:40:04;3.90;99.90
17529;DHT22;8882;53.192;8.184;2024-03-06T05:42:30;3.80;99.90
17529;DHT22;8882;53.192;8.184;2024-03-06T05:44:57;3.80;99.90
17529;DHT22;8882;53.192;8.184;2024-03-06T05:47:26;3.90;99.90
17529;DHT22;8882;53.192;8.184;2024-03-06T05:49:52;3.90;99.90
17529;DHT22;8882;53.192;8.184;2024-03-06T05:52:17;3.90;99.90
17529;DHT22;8882;53.192;8.184;2024-03-06T05:54:43;3.90;99.90
17529;DHT22;8882;53.192;8.184;2024-03-06T05:57:08;3.90;99.90
17529;DHT22;8882;53.192;8.184;2024-03-06T05:59:34;3.90;99.90
17529;DHT22;8882;53.192;8.184;2024-03-06T06:01:59;3.90;99.90
17529;DHT22;8882;53.192;8.184;2024-03-06T06:04:25;3.90;99.90
17529;DHT22;8882;53.192;8.184;2024-03-06T06:06:51;3.90;99.90
17529;DHT22;8882;53.192;8.184;2024-03-06T06:09:17;3.80;99.90
17529;DHT22;8882;53.192;8.184;2024-03-06T06:11:44;3.90;99.90
17529;DHT22;8882;53.192;8.184;2024-03-06T06:14:09;3.90;99.90
17529;DHT22;8882;53.192;8.184;2024-03-06T06:16:36;3.80;99.90
17529;DHT22;8882;53.192;8.184;2024-03-06T06:19:02;3.90;99.90
17529;DHT22;8882;53.192;8.184;2024-03-06T06:21:27;3.80;99.90
17529;DHT22;8882;53.192;8.184;2024-03-06T06:23:53;3.80;99.90
17529;DHT22;8882;53.192;8.184;2024-03-06T06:26:19;3.80;99.90
17529;DHT22;8882;53.192;8.184;2024-03-06T06:28:46;3.80;99.90
17529;DHT22;8882;53.192;8.184;2024-03-06T06:31:11;3.80;99.90
17529;DHT22;8882;53.192;8.184;2024-03-06T06:33:37;3.80;99.90
17529;DHT22;8882;53.192;8.184;2024-03-06T06:36:02;3.80;99.90
17529;DHT22;8882;53.192;8.184;2024-03-06T06:38:28;3.90;99.90
17529;DHT22;8882;53.192;8.184;2024-03-06T06:40:55;3.90;99.90
17529;DHT22;8882;53.192;8.184;2024-03-06T06:43:21;4.00;99.90
17529;DHT22;8882;53.192;8.184;2024-03-06T06:45:46;3.90;99.90
17529;DHT22;8882;53.192;8.184;2024-03-06T06:48:12;3.90;99.90
17529;DHT22;8882;53.192;8.184;2024-03-06T06:50:38;4.00;99.90
17529;DHT22;8882;53.192;8.184;2024-03-06T06:53:03;3.90;99.90
17529;DHT22;8882;53.192;8.184;2024-03-06T06:55:30;3.90;99.90
17529;DHT22;8882;53.192;8.184;2024-03-06T06:57:56;4.00;99.90
17529;DHT22;8882;53.192;8.184;2024-03-06T07:00:21;3.90;99.90
17529;DHT22;8882;53.192;8.184;2024-03-06T07:02:48;4.00;99.90
17529;DHT22;8882;53.192;8.184;2024-03-06T07:05:14;4.00;99.90
17529;DHT22;8882;53.192;8.184;2024-03-06T07:07:40;3.90;99.90
17529;DHT22;8882;53.192;8.184;2024-03-06T07:10:06;3.90;99.90
17529;DHT22;8882;53.192;8.184;2024-03-06T07:12:32;4.00;99.90
17529;DHT22;8882;53.192;8.184;2024-03-06T07:14:58;4.00;99.90
17529;DHT22;8882;53.192;8.184;2024-03-06T07:17:23;3.90;99.90
17529;DHT22;8882;53.192;8.184;2024-03-06T07:19:49;3.90;99.90
17529;DHT22;8882;53.192;8.184;2024-03-06T07:22:15;3.90;99.90
17529;DHT22;8882;53.192;8.184;2024-03-06T07:24:41;3.90;99.90
17529;DHT22;8882;53.192;8.184;2024-03-06T07:27:07;4.00;99.90
17529;DHT22;8882;53.192;8.184;2024-03-06T07:29:34;4.10;99.90
17529;DHT22;8882;53.192;8.184;2024-03-06T07:32:00;4.00;99.90
17529;DHT22;8882;53.192;8.184;2024-03-06T07:34:26;4.10;99.90
17529;DHT22;8882;53.192;8.184;2024-03-06T07:36:52;4.10;99.90
17529;DHT22;8882;53.192;8.184;2024-03-06T07:39:20;4.10;99.90
17529;DHT22;8882;53.192;8.184;2024-03-06T07:41:46;4.10;99.90
17529;DHT22;8882;53.192;8.184;2024-03-06T07:44:12;4.10;99.90
17529;DHT22;8882;53.192;8.184;2024-03-06T07:46:38;4.20;99.90
17529;DHT22;8882;53.192;8.184;2024-03-06T07:49:03;4.20;99.90
17529;DHT22;8882;53.192;8.184;2024-03-06T07:51:33;4.20;99.90
17529;DHT22;8882;53.192;8.184;2024-03-06T07:53:58;4.20;99.90
17529;DHT22;8882;53.192;8.184;2024-03-06T07:56:25;4.30;99.90
17529;DHT22;8882;53.192;8.184;2024-03-06T07:58:50;4.30;99.90
17529;DHT22;8882;53.192;8.184;2024-03-06T08:01:17;4.40;99.90
17529;DHT22;8882;53.192;8.184;2024-03-06T08:03:42;4.40;99.90
17529;DHT22;8882;53.192;8.184;2024-03-06T08:06:08;4.50;99.90
17529;DHT22;8882;53.192;8.184;2024-03-06T08:08:35;4.50;99.90
17529;DHT22;8882;53.192;8.184;2024-03-06T08:11:00;4.50;99.90
17529;DHT22;8882;53.192;8.184;2024-03-06T08:13:26;4.40;99.90
17529;DHT22;8882;53.192;8.184;2024-03-06T08:15:53;4.50;99.90
17529;DHT22;8882;53.192;8.184;2024-03-06T08:18:18;4.40;99.90
17529;DHT22;8882;53.192;8.184;2024-03-06T08:20:44;4.40;99.90
17529;DHT22;8882;53.192;8.184;2024-03-06T08:23:09;4.40;99.90
17529;DHT22;8882;53.192;8.184;2024-03-06T08:25:38;4.50;99.90
17529;DHT22;8882;53.192;8.184;2024-03-06T08:28:04;4.40;99.90
17529;DHT22;8882;53.192;8.184;2024-03-06T08:30:31;4.40;99.90
17529;DHT22;8882;53.192;8.184;2024-03-06T08:32:56;4.40;99.90
17529;DHT22;8882;53.192;8.184;2024-03-06T08:35:22;4.40;99.90
17529;DHT22;8882;53.192;8.184;2024-03-06T08:37:49;4.40;99.90
17529;DHT22;8882;53.192;8.184;2024-03-06T08:40:15;4.50;99.90
17529;DHT22;8882;53.192;8.184;2024-03-06T08:42:46;4.50;99.90
17529;DHT22;8882;53.192;8.184;2024-03-06T08:45:17;4.50;99.90
17529;DHT22;8882;53.192;8.184;2024-03-06T08:47:44;4.40;99.90
17529;DHT22;8882;53.192;8.184;2024-03-06T08:50:11;4.40;99.90
17529;DHT22;8882;53.192;8.184;2024-03-06T08:52:38;4.50;99.90
17529;DHT22;8882;53.192;8.184;2024-03-06T08:55:04;4.40;99.90
17529;DHT22;8882;53.192;8.184;2024-03-06T08:57:31;4.50;99.90
17529;DHT22;8882;53.192;8.184;2024-03-06T08:59:57;4.50;99.90
17529;DHT22;8882;53.192;8.184;2024-03-06T09:02:23;4.50;99.90
17529;DHT22;8882;53.192;8.184;2024-03-06T09:04:49;4.50;99.90
17529;DHT22;8882;53.192;8.184;2024-03-06T09:07:17;4.60;99.90
17529;DHT22;8882;53.192;8.184;2024-03-06T09:09:43;4.60;99.90
17529;DHT22;8882;53.192;8.184;2024-03-06T09:12:09;4.60;99.90
17529;DHT22;8882;53.192;8.184;2024-03-06T09:14:40;4.70;99.90
17529;DHT22;8882;53.192;8.184;2024-03-06T09:17:06;4.70;99.90
17529;DHT22;8882;53.192;8.184;2024-03-06T09:19:35;4.70;99.90
17529;DHT22;8882;53.192;8.184;2024-03-06T09:22:00;4.80;99.90
17529;DHT22;8882;53.192;8.184;2024-03-06T09:24:26;4.80;99.90
17529;DHT22;8882;53.192;8.184;2024-03-06T09:26:52;4.80;99.90
17529;DHT22;8882;53.192;8.184;2024-03-06T09:29:18;4.80;99.90
17529;DHT22;8882;53.192;8.184;2024-03-06T09:31:44;4.90;99.90
17529;DHT22;8882;53.192;8.184;2024-03-06T09:34:10;4.90;99.90
17529;DHT22;8882;53.192;8.184;2024-03-06T09:36:41;5.00;99.90
17529;DHT22;8882;53.192;8.184;2024-03-06T09:39:10;5.10;99.90
17529;DHT22;8882;53.192;8.184;2024-03-06T09:41:36;5.20;99.90
17529;DHT22;8882;53.192;8.184;2024-03-06T09:44:02;5.20;99.90
17529;DHT22;8882;53.192;8.184;2024-03-06T09:46:28;5.30;99.90
17529;DHT22;8882;53.192;8.184;2024-03-06T09:48:54;5.30;99.90
17529;DHT22;8882;53.192;8.184;2024-03-06T09:51:20;5.40;99.90
17529;DHT22;8882;53.192;8.184;2024-03-06T09:53:46;5.40;99.90
17529;DHT22;8882;53.192;8.184;2024-03-06T09:56:17;5.50;99.90
17529;DHT22;8882;53.192;8.184;2024-03-06T09:58:44;5.60;99.90
17529;DHT22;8882;53.192;8.184;2024-03-06T10:01:11;5.60;99.90
17529;DHT22;8882;53.192;8.184;2024-03-06T10:03:38;5.60;99.90
17529;DHT22;8882;53.192;8.184;2024-03-06T10:06:06;5.60;99.90
17529;DHT22;8882;53.192;8.184;2024-03-06T10:08:33;5.70;99.90
17529;DHT22;8882;53.192;8.184;2024-03-06T10:10:59;5.70;99.90
17529;DHT22;8882;53.192;8.184;2024-03-06T10:13:25;5.80;99.90
17529;DHT22;8882;53.192;8.184;2024-03-06T10:16:01;5.80;99.90
17529;DHT22;8882;53.192;8.184;2024-03-06T10:18:28;5.90;99.90
17529;DHT22;8882;53.192;8.184;2024-03-06T10:20:54;5.90;99.90
17529;DHT22;8882;53.192;8.184;2024-03-06T10:23:20;5.90;99.90
17529;DHT22;8882;53.192;8.184;2024-03-06T10:25:49;5.90;99.90
17529;DHT22;8882;53.192;8.184;2024-03-06T10:28:19;5.90;99.90
17529;DHT22;8882;53.192;8.184;2024-03-06T10:30:45;6.00;99.90
17529;DHT22;8882;53.192;8.184;2024-03-06T10:33:12;6.10;99.90
17529;DHT22;8882;53.192;8.184;2024-03-06T10:35:40;6.30;99.90
17529;DHT22;8882;53.192;8.184;2024-03-06T10:38:07;6.40;99.90
17529;DHT22;8882;53.192;8.184;2024-03-06T10:40:43;6.40;99.90
17529;DHT22;8882;53.192;8.184;2024-03-06T10:43:09;6.40;99.90
17529;DHT22;8882;53.192;8.184;2024-03-06T10:45:44;6.30;99.90
17529;DHT22;8882;53.192;8.184;2024-03-06T10:48:13;6.40;99.90
17529;DHT22;8882;53.192;8.184;2024-03-06T10:50:40;6.50;99.90
17529;DHT22;8882;53.192;8.184;2024-03-06T10:53:13;6.50;99.90
17529;DHT22;8882;53.192;8.184;2024-03-06T10:55:39;6.50;99.90
17529;DHT22;8882;53.192;8.184;2024-03-06T10:58:07;6.60;99.90
17529;DHT22;8882;53.192;8.184;2024-03-06T11:00:44;6.70;99.90
17529;DHT22;8882;53.192;8.184;2024-03-06T11:03:14;6.70;99.90
17529;DHT22;8882;53.192;8.184;2024-03-06T11:05:41;6.90;99.90
17529;DHT22;8882;53.192;8.184;2024-03-06T11:08:08;6.90;99.90
17529;DHT22;8882;53.192;8.184;2024-03-06T11:10:35;6.90;99.90
17529;DHT22;8882;53.192;8.184;2024-03-06T11:13:01;7.00;99.90
17529;DHT22;8882;53.192;8.184;2024-03-06T11:15:28;7.00;99.90
17529;DHT22;8882;53.192;8.184;2024-03-06T11:17:54;6.90;99.90
17529;DHT22;8882;53.192;8.184;2024-03-06T11:20:20;6.90;99.90
17529;DHT22;8882;53.192;8.184;2024-03-06T11:28:23;7.00;99.90
17529;DHT22;8882;53.192;8.184;2024-03-06T11:31:09;7.10;99.90
17529;DHT22;8882;53.192;8.184;2024-03-06T11:33:45;7.10;99.90
17529;DHT22;8882;53.192;8.184;2024-03-06T11:36:22;7.10;99.90
17529;DHT22;8882;53.192;8.184;2024-03-06T11:38:52;7.10;99.90
17529;DHT22;8882;53.192;8.184;2024-03-06T11:41:25;7.20;99.90
17529;DHT22;8882;53.192;8.184;2024-03-06T11:43:51;7.30;99.90
17529;DHT22;8882;53.192;8.184;2024-03-06T11:46:19;7.30;99.90
17529;DHT22;8882;53.192;8.184;2024-03-06T11:48:53;7.40;99.90
17529;DHT22;8882;53.192;8.184;2024-03-06T11:51:19;7.40;99.90
17529;DHT22;8882;53.192;8.184;2024-03-06T11:53:45;7.40;99.90
17529;DHT22;8882;53.192;8.184;2024-03-06T11:56:10;7.40;99.90
17529;DHT22;8882;53.192;8.184;2024-03-06T11:58:36;7.40;99.90
17529;DHT22;8882;53.192;8.184;2024-03-06T12:01:03;7.60;99.90
17529;DHT22;8882;53.192;8.184;2024-03-06T12:03:29;7.70;99.90
17529;DHT22;8882;53.192;8.184;2024-03-06T12:05:55;7.70;99.90
17529;DHT22;8882;53.192;8.184;2024-03-06T12:08:20;7.80;99.90
17529;DHT22;8882;53.192;8.184;2024-03-06T12:10:46;7.80;99.90
17529;DHT22;8882;53.192;8.184;2024-03-06T12:13:13;7.80;99.90
17529;DHT22;8882;53.192;8.184;2024-03-06T12:15:41;7.80;99.90
17529;DHT22;8882;53.192;8.184;2024-03-06T12:18:07;7.80;99.90
17529;DHT22;8882;53.192;8.184;2024-03-06T12:20:32;7.80;99.90
17529;DHT22;8882;53.192;8.184;2024-03-06T12:22:58;7.90;99.90
17529;DHT22;8882;53.192;8.184;2024-03-06T12:25:25;8.00;99.90
17529;DHT22;8882;53.192;8.184;2024-03-06T12:27:53;8.00;99.90
17529;DHT22;8882;53.192;8.184;2024-03-06T12:30:22;8.20;99.90
17529;DHT22;8882;53.192;8.184;2024-03-06T12:33:01;8.20;99.90
17529;DHT22;8882;53.192;8.184;2024-03-06T12:35:30;8.30;99.90
17529;DHT22;8882;53.192;8.184;2024-03-06T12:37:56;8.30;99.90
17529;DHT22;8882;53.192;8.184;2024-03-06T12:40:22;8.30;99.90
17529;DHT22;8882;53.192;8.184;2024-03-06T12:42:48;8.30;99.90
17529;DHT22;8882;53.192;8.184;2024-03-06T12:45:15;8.40;99.90
17529;DHT22;8882;53.192;8.184;2024-03-06T12:47:41;8.50;99.90
17529;DHT22;8882;53.192;8.184;2024-03-06T12:50:07;8.50;99.90
17529;DHT22;8882;53.192;8.184;2024-03-06T12:52:34;8.60;99.90
17529;DHT22;8882;53.192;8.184;2024-03-06T12:55:00;8.50;99.90
17529;DHT22;8882;53.192;8.184;2024-03-06T12:57:25;8.50;99.90
17529;DHT22;8882;53.192;8.184;2024-03-06T12:59:53;8.50;99.90
17529;DHT22;8882;53.192;8.184;2024-03-06T13:02:19;8.60;99.90
17529;DHT22;8882;53.192;8.184;2024-03-06T13:04:44;8.60;99.90
17529;DHT22;8882;53.192;8.184;2024-03-06T13:07:11;8.60;99.90
17529;DHT22;8882;53.192;8.184;2024-03-06T13:09:36;8.70;99.90
17529;DHT22;8882;53.192;8.184;2024-03-06T13:12:03;8.60;99.90
17529;DHT22;8882;53.192;8.184;2024-03-06T13:14:29;8.70;99.90
17529;DHT22;8882;53.192;8.184;2024-03-06T13:16:55;8.70;99.90
17529;DHT22;8882;53.192;8.184;2024-03-06T13:19:21;8.60;99.90
17529;DHT22;8882;53.192;8.184;2024-03-06T13:21:47;8.60;99.90
17529;DHT22;8882;53.192;8.184;2024-03-06T13:24:13;8.70;99.90
17529;DHT22;8882;53.192;8.184;2024-03-06T13:26:39;8.80;99.90
17529;DHT22;8882;53.192;8.184;2024-03-06T13:29:06;8.90;99.90
17529;DHT22;8882;53.192;8.184;2024-03-06T13:31:32;8.90;99.90
17529;DHT22;8882;53.192;8.184;2024-03-06T13:34:01;9.00;99.90
17529;DHT22;8882;53.192;8.184;2024-03-06T13:36:28;9.00;99.90
17529;DHT22;8882;53.192;8.184;2024-03-06T13:38:54;9.00;99.90
17529;DHT22;8882;53.192;8.184;2024-03-06T13:41:19;9.00;99.90
17529;DHT22;8882;53.192;8.184;2024-03-06T13:43:45;9.10;99.90
17529;DHT22;8882;53.192;8.184;2024-03-06T13:46:10;9.20;99.90
17529;DHT22;8882;53.192;8.184;2024-03-06T13:48:37;9.20;99.90
17529;DHT22;8882;53.192;8.184;2024-03-06T13:51:03;9.20;99.90
17529;DHT22;8882;53.192;8.184;2024-03-06T13:53:30;9.20;99.90
17529;DHT22;8882;53.192;8.184;2024-03-06T13:55:55;9.20;99.90
17529;DHT22;8882;53.192;8.184;2024-03-06T13:58:21;9.20;99.90
17529;DHT22;8882;53.192;8.184;2024-03-06T14:00:46;9.20;99.90
17529;DHT22;8882;53.192;8.184;2024-03-06T14:03:12;9.20;99.90
17529;DHT22;8882;53.192;8.184;2024-03-06T14:05:38;9.20;99.90
17529;DHT22;8882;53.192;8.184;2024-03-06T14:08:05;9.20;99.90
17529;DHT22;8882;53.192;8.184;2024-03-06T14:10:30;9.20;99.90
17529;DHT22;8882;53.192;8.184;2024-03-06T14:12:59;9.30;99.90
17529;DHT22;8882;53.192;8.184;2024-03-06T14:15:25;9.30;99.90
17529;DHT22;8882;53.192;8.184;2024-03-06T14:17:52;9.30;99.90
17529;DHT22;8882;53.192;8.184;2024-03-06T14:20:19;9.30;99.90
17529;DHT22;8882;53.192;8.184;2024-03-06T14:22:45;9.20;99.90
17529;DHT22;8882;53.192;8.184;2024-03-06T14:25:11;9.20;99.90
17529;DHT22;8882;53.192;8.184;2024-03-06T14:27:37;9.10;99.90
17529;DHT22;8882;53.192;8.184;2024-03-06T14:30:04;9.10;99.90
17529;DHT22;8882;53.192;8.184;2024-03-06T14:32:30;9.10;99.90
17529;DHT22;8882;53.192;8.184;2024-03-06T14:34:55;9.10;99.90
17529;DHT22;8882;53.192;8.184;2024-03-06T14:37:21;9.10;99.90
17529;DHT22;8882;53.192;8.184;2024-03-06T14:39:46;9.20;99.90
17529;DHT22;8882;53.192;8.184;2024-03-06T14:42:12;9.20;99.90
17529;DHT22;8882;53.192;8.184;2024-03-06T14:44:37;9.10;99.90
17529;DHT22;8882;53.192;8.184;2024-03-06T14:47:03;9.20;99.90
17529;DHT22;8882;53.192;8.184;2024-03-06T14:49:29;9.20;99.90
17529;DHT22;8882;53.192;8.184;2024-03-06T14:51:54;9.20;99.90
17529;DHT22;8882;53.192;8.184;2024-03-06T14:54:21;9.30;99.90
17529;DHT22;8882;53.192;8.184;2024-03-06T14:56:48;9.30;99.90
17529;DHT22;8882;53.192;8.184;2024-03-06T14:59:14;9.30;99.90
17529;DHT22;8882;53.192;8.184;2024-03-06T15:01:39;9.30;99.90
17529;DHT22;8882;53.192;8.184;2024-03-06T15:04:05;9.30;99.90
17529;DHT22;8882;53.192;8.184;2024-03-06T15:06:30;9.30;99.90
17529;DHT22;8882;53.192;8.184;2024-03-06T15:08:56;9.30;99.90
17529;DHT22;8882;53.192;8.184;2024-03-06T15:11:21;9.40;99.90
17529;DHT22;8882;53.192;8.184;2024-03-06T15:13:49;9.40;99.90
17529;DHT22;8882;53.192;8.184;2024-03-06T15:16:16;9.40;99.90
17529;DHT22;8882;53.192;8.184;2024-03-06T15:18:41;9.40;99.90
17529;DHT22;8882;53.192;8.184;2024-03-06T15:21:07;9.40;99.90
17529;DHT22;8882;53.192;8.184;2024-03-06T15:23:34;9.50;99.90
17529;DHT22;8882;53.192;8.184;2024-03-06T15:25:59;9.40;99.90
17529;DHT22;8882;53.192;8.184;2024-03-06T15:28:25;9.40;99.90
17529;DHT22;8882;53.192;8.184;2024-03-06T15:30:50;9.30;99.90
17529;DHT22;8882;53.192;8.184;2024-03-06T15:33:16;9.30;99.90
17529;DHT22;8882;53.192;8.184;2024-03-06T15:35:42;9.20;99.90
17529;DHT22;8882;53.192;8.184;2024-03-06T15:38:09;9.20;99.90
17529;DHT22;8882;53.192;8.184;2024-03-06T15:40:35;9.20;99.90
17529;DHT22;8882;53.192;8.184;2024-03-06T15:43:01;9.10;99.90
17529;DHT22;8882;53.192;8.184;2024-03-06T15:45:26;9.20;99.90
17529;DHT22;8882;53.192;8.184;2024-03-06T15:47:52;9.20;99.90
17529;DHT22;8882;53.192;8.184;2024-03-06T15:50:17;9.30;99.90
17529;DHT22;8882;53.192;8.184;2024-03-06T15:52:43;9.60;99.90
17529;DHT22;8882;53.192;8.184;2024-03-06T15:55:09;9.80;99.90
17529;DHT22;8882;53.192;8.184;2024-03-06T15:57:37;9.70;99.90
17529;DHT22;8882;53.192;8.184;2024-03-06T16:00:07;9.60;99.90
17529;DHT22;8882;53.192;8.184;2024-03-06T16:02:33;9.40;99.90
17529;DHT22;8882;53.192;8.184;2024-03-06T16:04:58;9.30;99.90
17529;DHT22;8882;53.192;8.184;2024-03-06T16:07:24;9.30;99.90
17529;DHT22;8882;53.192;8.184;2024-03-06T16:09:51;9.30;99.90
17529;DHT22;8882;53.192;8.184;2024-03-06T16:12:17;9.20;99.90
17529;DHT22;8882;53.192;8.184;2024-03-06T16:14:43;9.20;99.90
17529;DHT22;8882;53.192;8.184;2024-03-06T16:17:08;9.10;99.90
17529;DHT22;8882;53.192;8.184;2024-03-06T16:19:34;9.10;99.90
17529;DHT22;8882;53.192;8.184;2024-03-06T16:22:04;9.10;99.90
17529;DHT22;8882;53.192;8.184;2024-03-06T16:24:29;9.10;99.90
17529;DHT22;8882;53.192;8.184;2024-03-06T16:26:56;9.10;99.90
17529;DHT22;8882;53.192;8.184;2024-03-06T16:29:21;9.10;99.90
17529;DHT22;8882;53.192;8.184;2024-03-06T16:31:47;9.20;99.90
17529;DHT22;8882;53.192;8.184;2024-03-06T16:34:15;9.20;99.90
17529;DHT22;8882;53.192;8.184;2024-03-06T16:36:42;9.20;99.90
17529;DHT22;8882;53.192;8.184;2024-03-06T16:39:07;9.20;99.90
17529;DHT22;8882;53.192;8.184;2024-03-06T16:41:33;9.10;99.90
17529;DHT22;8882;53.192;8.184;2024-03-06T16:43:58;9.10;99.90
17529;DHT22;8882;53.192;8.184;2024-03-06T16:46:24;9.10;99.90
17529;DHT22;8882;53.192;8.184;2024-03-06T16:48:53;9.20;99.90
17529;DHT22;8882;53.192;8.184;2024-03-06T16:51:20;9.20;99.90
17529;DHT22;8882;53.192;8.184;2024-03-06T16:53:46;9.30;99.90
17529;DHT22;8882;53.192;8.184;2024-03-06T16:56:13;9.30;99.90
17529;DHT22;8882;53.192;8.184;2024-03-06T16:58:38;9.20;99.90
17529;DHT22;8882;53.192;8.184;2024-03-06T17:01:04;9.20;99.90
17529;DHT22;8882;53.192;8.184;2024-03-06T17:03:29;9.10;99.90
17529;DHT22;8882;53.192;8.184;2024-03-06T17:05:55;9.10;99.90
17529;DHT22;8882;53.192;8.184;2024-03-06T17:08:20;9.00;99.90
17529;DHT22;8882;53.192;8.184;2024-03-06T17:10:46;9.00;99.90
17529;DHT22;8882;53.192;8.184;2024-03-06T17:13:13;9.00;99.90
17529;DHT22;8882;53.192;8.184;2024-03-06T17:15:39;9.00;99.90
17529;DHT22;8882;53.192;8.184;2024-03-06T17:18:05;9.00;99.90
17529;DHT22;8882;53.192;8.184;2024-03-06T17:20:31;9.00;99.90
17529;DHT22;8882;53.192;8.184;2024-03-06T17:22:57;9.00;99.90
17529;DHT22;8882;53.192;8.184;2024-03-06T17:25:23;9.00;99.90
17529;DHT22;8882;53.192;8.184;2024-03-06T17:27:48;9.10;99.90
17529;DHT22;8882;53.192;8.184;2024-03-06T17:30:14;9.10;99.90
17529;DHT22;8882;53.192;8.184;2024-03-06T17:32:41;9.10;99.90
17529;DHT22;8882;53.192;8.184;2024-03-06T17:35:07;9.10;99.90
17529;DHT22;8882;53.192;8.184;2024-03-06T17:37:33;9.10;99.90
17529;DHT22;8882;53.192;8.184;2024-03-06T17:39:59;9.10;99.90
17529;DHT22;8882;53.192;8.184;2024-03-06T17:42:24;9.10;99.90
17529;DHT22;8882;53.192;8.184;2024-03-06T17:44:50;9.10;99.90
17529;DHT22;8882;53.192;8.184;2024-03-06T17:47:16;9.10;99.90
17529;DHT22;8882;53.192;8.184;2024-03-06T17:49:42;9.10;99.90
17529;DHT22;8882;53.192;8.184;2024-03-06T17:52:09;9.10;99.90
17529;DHT22;8882;53.192;8.184;2024-03-06T17:54:34;9.00;99.90
17529;DHT22;8882;53.192;8.184;2024-03-06T17:57:01;9.00;99.90
17529;DHT22;8882;53.192;8.184;2024-03-06T17:59:26;9.00;99.90
17529;DHT22;8882;53.192;8.184;2024-03-06T18:01:52;8.90;99.90
17529;DHT22;8882;53.192;8.184;2024-03-06T18:04:18;8.90;99.90
17529;DHT22;8882;53.192;8.184;2024-03-06T18:06:43;8.90;99.90
17529;DHT22;8882;53.192;8.184;2024-03-06T18:09:09;8.90;99.90
17529;DHT22;8882;53.192;8.184;2024-03-06T18:11:43;8.90;99.90
17529;DHT22;8882;53.192;8.184;2024-03-06T18:14:08;8.80;99.90
17529;DHT22;8882;53.192;8.184;2024-03-06T18:16:34;8.80;99.90
17529;DHT22;8882;53.192;8.184;2024-03-06T18:19:02;8.70;99.90
17529;DHT22;8882;53.192;8.184;2024-03-06T18:21:28;8.60;99.90
17529;DHT22;8882;53.192;8.184;2024-03-06T18:23:54;8.60;99.90
17529;DHT22;8882;53.192;8.184;2024-03-06T18:26:20;8.60;99.90
17529;DHT22;8882;53.192;8.184;2024-03-06T18:28:45;8.60;99.90
17529;DHT22;8882;53.192;8.184;2024-03-06T18:31:11;8.60;99.90
17529;DHT22;8882;53.192;8.184;2024-03-06T18:33:37;8.60;99.90
17529;DHT22;8882;53.192;8.184;2024-03-06T18:36:03;8.60;99.90
17529;DHT22;8882;53.192;8.184;2024-03-06T18:38:31;8.60;99.90
17529;DHT22;8882;53.192;8.184;2024-03-06T18:40:57;8.60;99.90
17529;DHT22;8882;53.192;8.184;2024-03-06T18:43:22;8.60;99.90
17529;DHT22;8882;53.192;8.184;2024-03-06T18:52:50;8.60;99.90
17529;DHT22;8882;53.192;8.184;2024-03-06T18:55:16;8.50;99.90
17529;DHT22;8882;53.192;8.184;2024-03-06T18:57:41;8.50;99.90
17529;DHT22;8882;53.192;8.184;2024-03-06T19:00:07;8.40;99.90
17529;DHT22;8882;53.192;8.184;2024-03-06T19:02:33;8.40;99.90
17529;DHT22;8882;53.192;8.184;2024-03-06T19:04:59;8.30;99.90
17529;DHT22;8882;53.192;8.184;2024-03-06T19:07:24;8.30;99.90
17529;DHT22;8882;53.192;8.184;2024-03-06T19:09:50;8.30;99.90
17529;DHT22;8882;53.192;8.184;2024-03-06T19:12:15;8.20;99.90
17529;DHT22;8882;53.192;8.184;2024-03-06T19:14:41;8.20;99.90
17529;DHT22;8882;53.192;8.184;2024-03-06T19:17:07;8.10;99.90
17529;DHT22;8882;53.192;8.184;2024-03-06T19:19:33;8.10;99.90
17529;DHT22;8882;53.192;8.184;2024-03-06T19:21:59;8.10;99.90
17529;DHT22;8882;53.192;8.184;2024-03-06T19:24:25;8.10;99.90
17529;DHT22;8882;53.192;8.184;2024-03-06T19:26:51;8.00;99.90
17529;DHT22;8882;53.192;8.184;2024-03-06T19:29:17;8.00;99.90
17529;DHT22;8882;53.192;8.184;2024-03-06T19:31:43;8.00;99.90
17529;DHT22;8882;53.192;8.184;2024-03-06T19:34:09;7.90;99.90
17529;DHT22;8882;53.192;8.184;2024-03-06T19:36:35;7.90;99.90
17529;DHT22;8882;53.192;8.184;2024-03-06T19:39:00;7.80;99.90
17529;DHT22;8882;53.192;8.184;2024-03-06T19:41:26;7.70;99.90
17529;DHT22;8882;53.192;8.184;2024-03-06T19:43:51;7.60;99.90
17529;DHT22;8882;53.192;8.184;2024-03-06T19:46:17;7.60;99.90
17529;DHT22;8882;53.192;8.184;2024-03-06T19:48:42;7.50;99.90
17529;DHT22;8882;53.192;8.184;2024-03-06T19:51:08;7.40;99.90
17529;DHT22;8882;53.192;8.184;2024-03-06T19:53:34;7.40;99.90
17529;DHT22;8882;53.192;8.184;2024-03-06T19:56:01;7.30;99.90
17529;DHT22;8882;53.192;8.184;2024-03-06T19:58:27;7.10;99.90
17529;DHT22;8882;53.192;8.184;2024-03-06T20:00:52;7.00;99.90
17529;DHT22;8882;53.192;8.184;2024-03-06T20:03:18;6.90;99.90
17529;DHT22;8882;53.192;8.184;2024-03-06T20:05:43;6.80;99.90
17529;DHT22;8882;53.192;8.184;2024-03-06T20:08:09;6.60;99.90
17529;DHT22;8882;53.192;8.184;2024-03-06T20:10:35;6.60;99.90
17529;DHT22;8882;53.192;8.184;2024-03-06T20:13:01;6.50;99.90
17529;DHT22;8882;53.192;8.184;2024-03-06T20:15:36;6.40;99.90
17529;DHT22;8882;53.192;8.184;2024-03-06T20:18:02;6.40;99.90
17529;DHT22;8882;53.192;8.184;2024-03-06T20:20:31;6.30;99.90
17529;DHT22;8882;53.192;8.184;2024-03-06T20:22:57;6.20;99.90
17529;DHT22;8882;53.192;8.184;2024-03-06T20:25:35;6.20;99.90
17529;DHT22;8882;53.192;8.184;2024-03-06T20:28:04;6.10;99.90
17529;DHT22;8882;53.192;8.184;2024-03-06T20:30:30;6.10;99.90
17529;DHT22;8882;53.192;8.184;2024-03-06T20:32:56;6.00;99.90
17529;DHT22;8882;53.192;8.184;2024-03-06T20:35:21;6.00;99.90
17529;DHT22;8882;53.192;8.184;2024-03-06T20:37:49;5.90;99.90
17529;DHT22;8882;53.192;8.184;2024-03-06T20:40:14;5.90;99.90
17529;DHT22;8882;53.192;8.184;2024-03-06T20:42:40;5.80;99.90
17529;DHT22;8882;53.192;8.184;2024-03-06T20:45:06;5.80;99.90
17529;DHT22;8882;53.192;8.184;2024-03-06T20:47:36;5.70;99.90
17529;DHT22;8882;53.192;8.184;2024-03-06T20:50:01;5.70;99.90
17529;DHT22;8882;53.192;8.184;2024-03-06T20:52:28;5.60;99.90
17529;DHT22;8882;53.192;8.184;2024-03-06T20:54:53;5.60;99.90
17529;DHT22;8882;53.192;8.184;2024-03-06T20:57:19;5.60;99.90
17529;DHT22;8882;53.192;8.184;2024-03-06T20:59:45;5.50;99.90
17529;DHT22;8882;53.192;8.184;2024-03-06T21:02:11;5.50;99.90
17529;DHT22;8882;53.192;8.184;2024-03-06T21:04:38;5.50;99.90
17529;DHT22;8882;53.192;8.184;2024-03-06T21:07:04;5.40;99.90
17529;DHT22;8882;53.192;8.184;2024-03-06T21:09:29;5.30;99.90
17529;DHT22;8882;53.192;8.184;2024-03-06T21:11:55;5.20;99.90
17529;DHT22;8882;53.192;8.184;2024-03-06T21:14:21;5.20;99.90
17529;DHT22;8882;53.192;8.184;2024-03-06T21:16:47;5.10;99.90
17529;DHT22;8882;53.192;8.184;2024-03-06T21:19:13;5.00;99.90
17529;DHT22;8882;53.192;8.184;2024-03-06T21:21:41;5.00;99.90
17529;DHT22;8882;53.192;8.184;2024-03-06T21:24:06;5.00;99.90
17529;DHT22;8882;53.192;8.184;2024-03-06T21:26:33;5.00;99.90